Time;durP1;ratioP1;P1;durP2;ratioP2;P2;SDS_P1;SDS_P2;PMS_P1;PMS_P2;Temp;Humidity;BMP_temperature;BMP_pressure;BME280_temperature;BME280_humidity;BME280_pressure;Samples;Min_cycle;Max_cycle;Signal;HPM_P1;HPM_P2
2020/12/26 00:01:21;305114.00;1.02;526.71;0.00;0.00;0.62;;;;;24.20;40.30;;;;;;2249719;61;6965;-67
2020/12/26 00:03:48;379147.00;1.26;653.96;0.00;0.00;0.62;;;;;24.20;40.30;;;;;;2249570;61;6828;-67
2020/12/26 00:06:16;344020.00;1.15;593.58;0.00;0.00;0.62;;;;;24.20;40.30;;;;;;2251008;61;7328;-67
2020/12/26 00:08:43;462178.00;1.54;796.73;0.00;0.00;0.62;;;;;24.20;40.30;;;;;;2247419;61;7314;-67
2020/12/26 00:11:15;537184.00;1.79;925.87;0.00;0.00;0.62;;;;;24.20;40.30;;;;;;2252227;61;6725;-66
2020/12/26 00:13:42;279271.00;0.93;482.28;0.00;0.00;0.62;;;;;24.10;40.30;;;;;;2251448;61;7200;-66
2020/12/26 00:16:12;624611.00;2.08;1076.73;0.00;0.00;0.62;;;;;24.10;40.30;;;;;;2251242;61;7465;-66
2020/12/26 00:18:39;156115.00;0.52;270.35;0.00;0.00;0.62;;;;;24.20;40.30;;;;;;2251653;61;7937;-66
2020/12/26 00:21:08;256085.00;0.85;442.42;0.00;0.00;0.62;;;;;24.00;40.30;;;;;;2252711;61;8252;-66
2020/12/26 00:23:35;157280.00;0.52;272.35;0.00;0.00;0.62;;;;;24.10;40.40;;;;;;2250782;61;8363;-66
2020/12/26 00:26:03;356178.00;1.19;614.48;0.00;0.00;0.62;;;;;24.10;40.50;;;;;;2249059;61;7266;-66
2020/12/26 00:28:33;281516.00;0.94;486.14;0.00;0.00;0.62;;;;;24.10;40.50;;;;;;2247806;61;6081;-66
2020/12/26 00:31:01;618144.00;2.06;1065.56;0.00;0.00;0.62;;;;;24.00;40.40;;;;;;2251453;61;6154;-67
2020/12/26 00:33:30;336216.00;1.12;580.17;0.00;0.00;0.62;;;;;24.10;40.50;;;;;;2251523;61;7333;-66
2020/12/26 00:35:56;285715.00;0.95;493.36;0.00;0.00;0.62;;;;;24.00;40.40;;;;;;2249987;61;5934;-66
2020/12/26 00:38:22;384633.00;1.28;663.39;0.00;0.00;0.62;;;;;24.00;40.50;;;;;;2252026;61;7535;-67
2020/12/26 00:40:49;409885.00;1.37;706.80;258.00;0.00;1.07;;;;;24.00;40.50;;;;;;2253781;61;7176;-66
2020/12/26 00:43:15;475654.00;1.59;819.92;0.00;0.00;0.62;;;;;24.00;40.50;;;;;;2251603;61;7310;-66
2020/12/26 00:45:42;509077.00;1.70;877.45;0.00;0.00;0.62;;;;;24.00;40.60;;;;;;2250646;61;7261;-66
2020/12/26 00:48:08;330343.00;1.10;570.08;0.00;0.00;0.62;;;;;24.00;40.60;;;;;;2245486;61;7408;-66
2020/12/26 00:50:35;323979.00;1.08;559.14;0.00;0.00;0.62;;;;;24.00;40.60;;;;;;2251909;61;7018;-66
2020/12/26 00:53:01;321161.00;1.07;554.29;0.00;0.00;0.62;;;;;24.00;40.70;;;;;;2250421;61;7304;-66
2020/12/26 00:55:27;242652.00;0.81;419.31;0.00;0.00;0.62;;;;;24.00;40.60;;;;;;2251052;61;6955;-66
2020/12/26 00:57:57;164770.00;0.55;285.26;0.00;0.00;0.62;;;;;24.00;40.50;;;;;;2252700;61;7116;-66
2020/12/26 01:00:24;351135.00;1.17;605.81;0.00;0.00;0.62;;;;;24.00;40.60;;;;;;2249599;61;7238;-67
2020/12/26 01:02:50;446954.00;1.49;770.54;20605.00;0.07;36.32;;;;;23.90;40.50;;;;;;2252577;61;7581;-67
2020/12/26 01:05:16;406000.00;1.35;700.12;0.00;0.00;0.62;;;;;23.90;40.50;;;;;;2252476;61;7522;-68
2020/12/26 01:07:42;259644.00;0.87;448.54;0.00;0.00;0.62;;;;;23.90;40.60;;;;;;2247291;61;6918;-67
2020/12/26 01:10:09;344310.00;1.15;594.08;0.00;0.00;0.62;;;;;23.90;40.60;;;;;;2254715;61;7307;-67
2020/12/26 01:12:35;116556792.00;388.52;64140600.00;0.00;0.00;0.62;;;;;23.90;40.70;;;;;;2248036;61;7308;-67
2020/12/26 01:15:03;208011.00;0.69;359.71;0.00;0.00;0.62;;;;;23.90;40.70;;;;;;2251743;61;7461;-66
2020/12/26 01:17:29;258979.00;0.86;447.39;0.00;0.00;0.62;;;;;23.90;40.70;;;;;;2250923;61;7240;-67
2020/12/26 01:19:56;409233.00;1.36;705.68;0.00;0.00;0.62;;;;;23.90;40.70;;;;;;2247645;61;7551;-66
2020/12/26 01:22:23;185047.00;0.62;320.18;0.00;0.00;0.62;;;;;23.90;40.70;;;;;;2250948;61;7205;-66
2020/12/26 01:24:49;37014.00;0.12;64.72;0.00;0.00;0.62;;;;;23.90;40.60;;;;;;2251845;61;7223;-66
2020/12/26 01:27:15;180847.00;0.60;312.95;0.00;0.00;0.62;;;;;23.80;40.70;;;;;;2248350;61;7719;-67
2020/12/26 01:29:45;332086.00;1.11;573.07;0.00;0.00;0.62;;;;;23.80;40.70;;;;;;2251047;61;7200;-66
2020/12/26 01:32:11;312764.00;1.04;539.86;0.00;0.00;0.62;;;;;23.80;40.70;;;;;;2252646;61;7153;-66
2020/12/26 01:34:38;353518.00;1.18;609.91;0.00;0.00;0.62;;;;;23.80;40.80;;;;;;2247132;61;8528;-66
2020/12/26 01:37:04;292088.00;0.97;504.32;0.00;0.00;0.62;;;;;23.80;40.70;;;;;;2252397;61;7250;-67
2020/12/26 01:39:31;175558.00;0.59;303.84;0.00;0.00;0.62;;;;;23.80;40.70;;;;;;2250820;61;7383;-67
2020/12/26 01:42:01;98436.00;0.33;170.87;0.00;0.00;0.62;;;;;23.70;40.70;;;;;;2252321;61;7531;-66
2020/12/26 01:44:27;243049.00;0.81;420.00;0.00;0.00;0.62;;;;;23.80;40.70;;;;;;2252165;61;7078;-67
2020/12/26 01:46:53;154885.00;0.52;268.23;0.00;0.00;0.62;;;;;23.80;40.70;;;;;;2251948;61;7022;-67
2020/12/26 01:49:21;236658.00;0.79;409.00;0.00;0.00;0.62;;;;;23.70;40.70;;;;;;2250478;61;7300;-67
2020/12/26 01:51:48;181840.00;0.61;314.66;0.00;0.00;0.62;;;;;23.70;40.60;;;;;;2243891;61;7074;-66
2020/12/26 01:54:15;392069.00;1.31;676.17;33123.00;0.11;57.99;;;;;23.70;40.70;;;;;;2252181;61;7166;-66
2020/12/26 01:56:42;286157.00;0.95;494.12;0.00;0.00;0.62;;;;;23.70;40.60;;;;;;2250772;61;7327;-66
2020/12/26 01:59:09;247234.00;0.82;427.19;0.00;0.00;0.62;;;;;23.70;40.60;;;;;;2248540;61;7260;-66
2020/12/26 02:01:38;298050.00;0.99;514.57;0.00;0.00;0.62;;;;;23.70;40.60;;;;;;2248100;61;7632;-66
2020/12/26 02:04:06;332663.00;1.11;574.06;0.00;0.00;0.62;;;;;23.70;40.70;;;;;;2251932;61;7386;-67
2020/12/26 02:06:59;518061.00;1.73;892.93;774.00;0.00;1.96;;;;;23.70;40.60;;;;;;2239849;61;7628;-66
2020/12/26 02:09:26;265795.00;0.89;459.11;0.00;0.00;0.62;;;;;23.70;40.70;;;;;;2250261;61;6050;-68
2020/12/26 02:11:52;293626.00;0.98;506.96;0.00;0.00;0.62;;;;;23.70;40.70;;;;;;2252207;61;7091;-67
2020/12/26 02:14:19;504460.00;1.68;869.50;0.00;0.00;0.62;;;;;23.70;40.80;;;;;;2245464;61;7892;-66
2020/12/26 02:16:47;436927.00;1.46;753.30;0.00;0.00;0.62;;;;;23.70;40.70;;;;;;2250244;61;7425;-67
2020/12/26 02:19:14;425745.00;1.42;734.07;0.00;0.00;0.62;;;;;23.70;40.70;;;;;;2252388;61;5636;-66
2020/12/26 02:21:41;526940.00;1.76;908.22;0.00;0.00;0.62;;;;;23.70;40.70;;;;;;2252930;61;7585;-67
2020/12/26 02:24:09;220717.00;0.74;381.58;0.00;0.00;0.62;;;;;23.70;40.70;;;;;;2248145;61;7321;-66
2020/12/26 02:26:36;467503.00;1.56;805.89;0.00;0.00;0.62;;;;;23.70;40.70;;;;;;2249896;61;7301;-66
2020/12/26 02:29:03;268745.00;0.90;464.19;0.00;0.00;0.62;;;;;23.60;40.70;;;;;;2251736;61;7178;-66
2020/12/26 02:31:30;407468.00;1.36;702.64;0.00;0.00;0.62;;;;;23.70;40.70;;;;;;2252595;61;7262;-66
2020/12/26 02:33:56;710140.00;2.37;1224.83;0.00;0.00;0.62;;;;;23.70;40.70;;;;;;2248910;61;7315;-66
2020/12/26 02:36:26;120258912.00;400.86;70454496.00;0.00;0.00;0.62;;;;;23.70;40.70;;;;;;2253422;61;6628;-67
2020/12/26 02:38:52;373162.00;1.24;643.67;0.00;0.00;0.62;;;;;23.70;40.70;;;;;;2250998;61;7582;-66
2020/12/26 02:41:19;257702.00;0.86;445.20;0.00;0.00;0.62;;;;;23.70;40.70;;;;;;2253717;61;7678;-66
2020/12/26 02:43:45;411360.00;1.37;709.34;0.00;0.00;0.62;;;;;23.60;40.60;;;;;;2245922;61;5690;-66
2020/12/26 02:46:15;297137.00;0.99;513.00;0.00;0.00;0.62;;;;;23.60;40.60;;;;;;2251347;61;6858;-66
2020/12/26 02:48:41;213295.00;0.71;368.81;0.00;0.00;0.62;;;;;23.60;40.70;;;;;;2247902;61;7414;-66
2020/12/26 02:51:08;468414.00;1.56;807.46;0.00;0.00;0.62;;;;;23.60;40.80;;;;;;2251415;61;7600;-66
2020/12/26 02:53:37;263659.00;0.88;455.44;0.00;0.00;0.62;;;;;23.60;40.70;;;;;;2253083;61;7153;-66
2020/12/26 02:56:03;524024.00;1.75;903.20;21585.00;0.07;38.01;;;;;23.60;40.70;;;;;;2250808;61;8040;-66
2020/12/26 02:58:30;257605.00;0.86;445.03;0.00;0.00;0.62;;;;;23.60;40.80;;;;;;2248558;61;8082;-66
2020/12/26 03:00:57;238738.00;0.80;412.58;0.00;0.00;0.62;;;;;23.60;40.80;;;;;;2251429;61;6783;-66
2020/12/26 03:03:23;406168.00;1.35;700.41;0.00;0.00;0.62;;;;;23.60;40.80;;;;;;2247334;61;8246;-66
2020/12/26 03:05:49;512602.00;1.71;883.52;12117.00;0.04;21.62;;;;;23.60;40.80;;;;;;2241346;61;7815;-66
2020/12/26 03:08:16;324931.00;1.08;560.77;0.00;0.00;0.62;;;;;23.60;40.80;;;;;;2246028;61;10652;-67
2020/12/26 03:10:46;740421.00;2.47;1277.41;0.00;0.00;0.62;;;;;23.50;40.70;;;;;;2250087;61;7416;-66
2020/12/26 03:13:16;518586.00;1.73;893.83;0.00;0.00;0.62;;;;;23.50;40.70;;;;;;2249810;61;7770;-66
2020/12/26 03:15:46;516304.00;1.72;889.90;0.00;0.00;0.62;;;;;23.60;40.80;;;;;;2247553;61;6084;-66
2020/12/26 03:18:12;550570.00;1.84;948.94;0.00;0.00;0.62;;;;;23.60;40.70;;;;;;2247935;61;6958;-66
2020/12/26 03:20:39;422462.00;1.41;728.42;0.00;0.00;0.62;;;;;23.60;40.70;;;;;;2252303;61;7223;-66
2020/12/26 03:23:09;498567.00;1.66;859.36;0.00;0.00;0.62;;;;;23.60;40.70;;;;;;2246418;61;7153;-67
2020/12/26 03:25:35;394354.00;1.31;680.10;0.00;0.00;0.62;;;;;23.50;40.70;;;;;;2249964;61;6884;-66
2020/12/26 03:28:01;203833.00;0.68;352.52;0.00;0.00;0.62;;;;;23.60;40.70;;;;;;2250696;61;6041;-66
2020/12/26 03:30:32;591044.00;1.97;1018.76;0.00;0.00;0.62;;;;;23.50;40.80;;;;;;2254676;61;7493;-66
2020/12/26 03:32:58;349642.00;1.17;603.25;0.00;0.00;0.62;;;;;23.50;40.80;;;;;;2246250;61;6364;-66
2020/12/26 03:35:28;600895.00;2.00;1035.77;0.00;0.00;0.62;;;;;23.50;40.80;;;;;;2250765;61;6966;-66
2020/12/26 03:37:54;582003.00;1.94;1003.15;0.00;0.00;0.62;;;;;23.50;40.80;;;;;;2250717;61;6989;-67
2020/12/26 03:40:21;274728.00;0.92;474.47;0.00;0.00;0.62;;;;;23.50;40.70;;;;;;2247391;61;6956;-66
2020/12/26 03:42:47;412260.00;1.37;710.88;0.00;0.00;0.62;;;;;23.50;40.70;;;;;;2251714;61;6936;-66
2020/12/26 03:45:20;563530.00;1.88;971.29;0.00;0.00;0.62;;;;;23.60;40.70;;;;;;2249547;61;7209;-66
2020/12/26 03:47:46;414786.00;1.38;715.23;0.00;0.00;0.62;;;;;23.50;40.70;;;;;;2253101;61;6910;-66
2020/12/26 03:50:13;523599.00;1.75;902.46;21177.00;0.07;37.31;;;;;23.50;40.70;;;;;;2254859;61;6765;-66
2020/12/26 03:52:39;258916.00;0.86;447.28;0.00;0.00;0.62;;;;;23.50;40.60;;;;;;2250752;61;5310;-66
2020/12/26 03:55:05;496179.00;1.65;855.25;0.00;0.00;0.62;;;;;23.60;40.70;;;;;;2246182;61;5930;-67
2020/12/26 03:57:36;585220.00;1.95;1008.71;0.00;0.00;0.62;;;;;23.50;40.70;;;;;;2250909;61;6985;-67
2020/12/26 04:00:05;334664.00;1.12;577.50;0.00;0.00;0.62;;;;;23.50;40.70;;;;;;2244429;61;6857;-66
2020/12/26 04:02:31;138428.00;0.46;239.86;0.00;0.00;0.62;;;;;23.50;40.60;;;;;;2255111;61;7377;-66
2020/12/26 04:04:58;372687.00;1.24;642.86;0.00;0.00;0.62;;;;;23.50;40.60;;;;;;2252462;61;7471;-66
2020/12/26 04:07:24;666150.00;2.22;1148.59;10951.00;0.04;19.60;;;;;23.50;40.70;;;;;;2251252;61;5840;-66
2020/12/26 04:09:51;474944.00;1.58;818.70;0.00;0.00;0.62;;;;;23.50;40.70;;;;;;2248375;61;7311;-66
2020/12/26 04:12:17;279728.00;0.93;483.07;5328.00;0.02;9.85;;;;;23.50;40.60;;;;;;2249822;61;7165;-66
2020/12/26 04:14:43;233454.00;0.78;403.49;0.00;0.00;0.62;;;;;23.50;40.70;;;;;;2247483;61;7088;-66
2020/12/26 04:17:10;298564.00;1.00;515.45;0.00;0.00;0.62;;;;;23.50;40.60;;;;;;2254326;61;7369;-66
2020/12/26 04:19:36;374563.00;1.25;646.08;0.00;0.00;0.62;;;;;23.50;40.60;;;;;;2245232;61;6127;-67
2020/12/26 04:22:02;279121.00;0.93;482.03;0.00;0.00;0.62;;;;;23.50;40.60;;;;;;2250923;61;6058;-66
2020/12/26 04:24:29;473906.00;1.58;816.91;0.00;0.00;0.62;;;;;23.50;40.50;;;;;;2250616;61;7377;-66
2020/12/26 04:26:55;379211.00;1.26;654.07;0.00;0.00;0.62;;;;;23.50;40.60;;;;;;2248787;61;7477;-66
2020/12/26 04:29:22;591503.00;1.97;1019.55;0.00;0.00;0.62;;;;;23.50;40.60;;;;;;2245008;61;7029;-67
2020/12/26 04:31:50;355550.00;1.19;613.40;0.00;0.00;0.62;;;;;23.50;40.50;;;;;;2252612;61;7180;-66
2020/12/26 04:34:18;550415.00;1.83;948.67;0.00;0.00;0.62;;;;;23.50;40.50;;;;;;2248062;61;7313;-66
2020/12/26 04:36:47;565898.00;1.89;975.37;11086.00;0.04;19.83;;;;;23.60;40.60;;;;;;2250410;61;7302;-67
2020/12/26 04:39:15;483124.00;1.61;832.77;0.00;0.00;0.62;;;;;23.50;40.40;;;;;;2247044;61;7197;-67
2020/12/26 04:41:41;162006.00;0.54;280.50;0.00;0.00;0.62;;;;;23.50;40.50;;;;;;2247886;61;7249;-67
2020/12/26 04:44:10;961189.00;3.20;1663.85;0.00;0.00;0.62;;;;;23.50;40.60;;;;;;2252543;61;7463;-67
2020/12/26 04:46:40;474707.00;1.58;818.29;0.00;0.00;0.62;;;;;23.50;40.50;;;;;;2251754;61;7544;-66
2020/12/26 04:49:09;320473.00;1.07;553.11;0.00;0.00;0.62;;;;;23.50;40.50;;;;;;2244977;61;7235;-67
2020/12/26 04:51:39;443021.00;1.48;763.78;0.00;0.00;0.62;;;;;23.50;40.50;;;;;;2251629;61;7445;-66
2020/12/26 04:54:23;798507.00;2.66;1378.52;4367.00;0.01;8.19;;;;;23.40;40.50;;;;;;2250410;61;7288;-67
2020/12/26 04:56:56;547782.00;1.83;944.14;0.00;0.00;0.62;;;;;23.40;40.60;;;;;;2256528;61;7284;-66
2020/12/26 04:59:23;668068.00;2.23;1151.91;0.00;0.00;0.62;;;;;23.40;40.70;;;;;;2255332;61;7424;-66
2020/12/26 05:01:51;276450.00;0.92;477.43;0.00;0.00;0.62;;;;;23.30;40.90;;;;;;2252850;61;7150;-67
2020/12/26 05:04:18;668283.00;2.23;1152.28;0.00;0.00;0.62;;;;;23.20;41.00;;;;;;2253007;61;7136;-66
2020/12/26 05:06:50;632487.00;2.11;1090.35;0.00;0.00;0.62;;;;;23.10;41.10;;;;;;2246898;61;7426;-66
2020/12/26 05:09:18;574158.00;1.91;989.62;0.00;0.00;0.62;;;;;23.10;41.20;;;;;;2247117;61;7728;-67
2020/12/26 05:11:59;515947.00;1.72;889.28;0.00;0.00;0.62;;;;;23.00;41.40;;;;;;2252595;61;5716;-66
2020/12/26 05:14:31;338373.00;1.13;583.88;0.00;0.00;0.62;;;;;22.90;41.40;;;;;;2250157;61;7390;-67
2020/12/26 05:16:58;390710.00;1.30;673.84;0.00;0.00;0.62;;;;;22.90;41.50;;;;;;2248659;61;7253;-66
2020/12/26 05:19:28;492051.00;1.64;848.14;0.00;0.00;0.62;;;;;22.90;41.50;;;;;;2251766;61;7259;-66
2020/12/26 05:21:56;640595.00;2.14;1104.37;2365.00;0.01;4.72;;;;;22.90;41.50;;;;;;2255027;58;7475;-66
2020/12/26 05:24:23;417655.00;1.39;720.16;0.00;0.00;0.62;;;;;23.00;41.40;;;;;;2251101;61;5253;-66
2020/12/26 05:26:52;480597.00;1.60;828.42;0.00;0.00;0.62;;;;;23.00;41.40;;;;;;2250940;61;6661;-67
2020/12/26 05:29:20;549551.00;1.83;947.19;0.00;0.00;0.62;;;;;23.00;41.40;;;;;;2250162;61;6189;-66
2020/12/26 05:31:55;403747.00;1.35;696.25;0.00;0.00;0.62;;;;;23.00;41.30;;;;;;2251070;61;6352;-66
2020/12/26 05:34:33;469598.00;1.57;809.50;0.00;0.00;0.62;;;;;23.10;41.30;;;;;;2255413;61;7162;-66
2020/12/26 05:37:00;458179.00;1.53;789.85;0.00;0.00;0.62;;;;;23.10;41.80;;;;;;2247885;61;5687;-67
2020/12/26 05:39:32;608610.00;2.03;1049.09;0.00;0.00;0.62;;;;;23.10;41.20;;;;;;2249787;61;6058;-66
2020/12/26 05:41:58;585124.00;1.95;1008.54;0.00;0.00;0.62;;;;;23.10;41.20;;;;;;2247707;61;8308;-66
2020/12/26 05:44:29;316942.00;1.06;547.04;0.00;0.00;0.62;;;;;23.20;41.20;;;;;;2254774;61;6975;-67
2020/12/26 05:46:59;447221.00;1.49;771.00;0.00;0.00;0.62;;;;;23.10;41.10;;;;;;2252295;61;7701;-66
2020/12/26 05:49:31;398277.00;1.33;686.84;0.00;0.00;0.62;;;;;23.10;41.00;;;;;;2252683;61;7268;-66
2020/12/26 05:52:03;757616.00;2.53;1307.30;0.00;0.00;0.62;;;;;23.10;41.00;;;;;;2249853;61;7686;-66
2020/12/26 05:54:30;322613.00;1.08;556.79;0.00;0.00;0.62;;;;;23.20;41.00;;;;;;2251969;61;7113;-67
2020/12/26 05:57:14;270499.00;0.90;467.20;0.00;0.00;0.62;;;;;23.10;40.90;;;;;;2253902;61;7189;-66
2020/12/26 05:59:45;505797.00;1.69;871.80;0.00;0.00;0.62;;;;;23.10;40.90;;;;;;2252409;61;7096;-67
2020/12/26 06:02:29;604392.00;2.01;1041.80;0.00;0.00;0.62;;;;;23.10;40.90;;;;;;2252732;61;6751;-66
2020/12/26 06:04:58;378878.00;1.26;653.50;0.00;0.00;0.62;;;;;23.20;40.90;;;;;;2251940;61;7020;-66
2020/12/26 06:07:36;288916.00;0.96;498.87;0.00;0.00;0.62;;;;;23.20;40.90;;;;;;2253663;61;5982;-66
2020/12/26 06:10:05;240607.00;0.80;415.80;0.00;0.00;0.62;;;;;23.20;40.90;;;;;;2251745;61;6395;-66
2020/12/26 06:12:35;548398.00;1.83;945.20;0.00;0.00;0.62;;;;;23.20;40.90;;;;;;2253367;61;7121;-66
2020/12/26 06:15:03;389975.00;1.30;672.57;0.00;0.00;0.62;;;;;23.20;40.70;;;;;;2243048;61;6066;-66
2020/12/26 06:17:33;545745.00;1.82;940.62;5566.00;0.02;10.27;;;;;23.20;40.70;;;;;;2248354;61;6142;-66
2020/12/26 06:20:07;612315.00;2.04;1055.49;20771.00;0.07;36.61;;;;;23.20;40.70;;;;;;2251242;61;7340;-68
2020/12/26 06:22:49;406870.00;1.36;701.62;7782.00;0.03;14.11;;;;;23.20;40.70;;;;;;2251325;61;7365;-66
2020/12/26 06:25:21;250860.00;0.84;433.43;0.00;0.00;0.62;;;;;23.20;40.70;;;;;;2251554;61;7313;-66
2020/12/26 06:27:51;275072.00;0.92;475.06;0.00;0.00;0.62;;;;;23.20;40.70;;;;;;2252399;61;6181;-67
2020/12/26 06:30:22;413738.00;1.38;713.42;0.00;0.00;0.62;;;;;23.20;40.60;;;;;;2252381;61;4736;-66
2020/12/26 06:32:50;286229.00;0.95;494.25;0.00;0.00;0.62;;;;;23.20;40.60;;;;;;2252706;61;7380;-66
2020/12/26 06:35:20;374470.00;1.25;645.92;0.00;0.00;0.62;;;;;23.20;40.60;;;;;;2249319;61;7520;-67
2020/12/26 06:38:23;439077.00;1.46;757.00;0.00;0.00;0.62;;;;;23.30;40.70;;;;;;2246060;61;8102;-68
2020/12/26 06:40:58;566551.00;1.89;976.50;3705.00;0.01;7.04;;;;;23.30;40.50;;;;;;2247944;61;6168;-68
2020/12/26 06:43:42;526009.00;1.75;906.62;0.00;0.00;0.62;;;;;23.40;40.50;;;;;;2248229;61;7614;-68
2020/12/26 06:46:35;275376.00;0.92;475.59;0.00;0.00;0.62;;;;;23.40;40.40;;;;;;2253672;61;7335;-67
2020/12/26 06:49:01;653325.00;2.18;1126.39;0.00;0.00;0.62;;;;;23.40;40.40;;;;;;2252147;61;7302;-68
2020/12/26 06:51:37;542294.00;1.81;934.68;0.00;0.00;0.62;;;;;23.40;40.40;;;;;;2255152;61;7090;-67
2020/12/26 06:54:07;563151.00;1.88;970.63;2229.00;0.01;4.48;;;;;23.40;40.90;;;;;;2250149;61;7555;-67
2020/12/26 06:56:36;375787.00;1.25;648.18;0.00;0.00;0.62;;;;;23.50;40.30;;;;;;2252576;61;7368;-67
2020/12/26 06:59:02;494398.00;1.65;852.18;0.00;0.00;0.62;;;;;23.50;40.20;;;;;;2252267;61;7221;-67
2020/12/26 07:01:30;498356.00;1.66;858.99;0.00;0.00;0.62;;;;;23.50;40.30;;;;;;2252612;61;6045;-67
2020/12/26 07:04:09;948012.00;3.16;1640.61;0.00;0.00;0.62;;;;;23.50;40.90;;;;;;2252929;61;7533;-67
2020/12/26 07:06:36;1111818.00;3.71;1931.57;34456.00;0.11;60.30;;;;;23.60;40.40;;;;;;2251953;61;7479;-68
2020/12/26 07:09:03;838024.00;2.79;1447.52;0.00;0.00;0.62;;;;;23.60;40.30;;;;;;2252980;61;7435;-67
2020/12/26 07:11:30;979564.00;3.27;1696.31;11543.00;0.04;20.62;;;;;23.60;40.20;;;;;;2247771;61;7531;-67
2020/12/26 07:13:57;506462.00;1.69;872.95;11321.00;0.04;20.24;;;;;23.70;40.20;;;;;;2250999;61;7453;-67
2020/12/26 07:16:40;606369.00;2.02;1045.22;0.00;0.00;0.62;;;;;23.70;40.10;;;;;;2253735;61;7347;-67
2020/12/26 07:19:28;727932.00;2.43;1255.71;0.00;0.00;0.62;;;;;23.80;40.00;;;;;;2253783;61;7444;-67
2020/12/26 07:22:06;877585.00;2.93;1516.79;0.00;0.00;0.62;;;;;23.90;39.90;;;;;;2252916;61;7443;-67
2020/12/26 07:24:39;1173383.00;3.91;2042.17;0.00;0.00;0.62;;;;;23.90;39.80;;;;;;2256349;61;5704;-67
2020/12/26 07:27:13;959241.00;3.20;1660.41;7719.00;0.03;14.00;;;;;23.90;39.90;;;;;;2253851;61;7089;-67
2020/12/26 07:30:05;918810.00;3.06;1589.18;5024.00;0.02;9.33;;;;;24.00;39.70;;;;;;2253810;61;6802;-67
2020/12/26 07:32:58;942706.00;3.14;1631.25;0.00;0.00;0.62;;;;;24.00;39.70;;;;;;2250930;61;6888;-67
2020/12/26 07:35:26;1109429.00;3.70;1927.29;0.00;0.00;0.62;;;;;24.00;39.60;;;;;;2252830;61;7611;-67
2020/12/26 07:37:52;1291565.00;4.31;2256.68;9273.00;0.03;16.69;;;;;24.00;39.70;;;;;;2253761;61;7325;-68
2020/12/26 07:40:21;1615646.00;5.39;2862.68;0.00;0.00;0.62;;;;;24.00;39.70;;;;;;2252423;61;5536;-67
2020/12/26 07:42:48;2876506.00;9.59;5606.88;23486.00;0.08;41.31;;;;;24.00;39.60;;;;;;2249553;61;8326;-67
2020/12/26 07:45:21;3737948.00;12.46;8017.58;13018.00;0.04;23.18;;;;;23.90;39.80;;;;;;2253549;61;7653;-67
2020/12/26 07:47:53;3377503.00;11.26;6943.01;50539.00;0.17;88.12;;;;;23.80;39.90;;;;;;2253400;61;7298;-68
2020/12/26 07:50:25;126417656.00;421.39;81854264.00;6245.00;0.02;11.44;;;;;23.80;39.90;;;;;;2252995;61;7008;-67
2020/12/26 07:52:52;4955965.00;16.52;12513.14;25761.00;0.09;45.25;;;;;23.80;39.80;;;;;;2256406;61;7355;-68
2020/12/26 07:55:20;4590750.00;15.30;11009.75;0.00;0.00;0.62;;;;;23.90;39.80;;;;;;2254495;61;7194;-67
2020/12/26 07:57:47;4727238.00;15.76;11554.76;0.00;0.00;0.62;;;;;23.90;39.80;;;;;;2249873;61;7747;-68
2020/12/26 08:00:22;125719104.00;419.06;80503544.00;0.00;0.00;0.62;;;;;23.90;39.60;;;;;;2253217;61;7609;-67
2020/12/26 08:02:50;126528952.00;421.76;82070864.00;39801.00;0.13;69.54;;;;;23.90;39.10;;;;;;2249895;61;7200;-67
2020/12/26 08:05:23;3842971.00;12.81;8350.44;38939.00;0.13;68.05;;;;;24.00;38.70;;;;;;2256184;61;7091;-67
2020/12/26 08:07:54;3024318.00;10.08;5983.55;27894.00;0.09;48.94;;;;;24.00;38.50;;;;;;2251450;61;7511;-67
2020/12/26 08:10:22;3400768.00;11.34;7009.33;61932.00;0.21;107.82;;;;;24.10;38.30;;;;;;2246498;61;7695;-69
2020/12/26 08:12:54;2642420.00;8.81;5037.69;0.00;0.00;0.62;;;;;24.20;38.30;;;;;;2255655;61;7595;-69
2020/12/26 08:15:27;2124149.00;7.08;3882.44;11767.00;0.04;21.01;;;;;24.20;38.00;;;;;;2247888;61;7874;-70
2020/12/26 08:18:02;3138032.00;10.46;6283.03;0.00;0.00;0.62;;;;;24.30;37.80;;;;;;2251919;61;6794;-70
2020/12/26 08:20:34;2852047.00;9.51;5545.87;0.00;0.00;0.62;;;;;24.40;37.70;;;;;;2252048;61;7994;-67
2020/12/26 08:23:00;2555458.00;8.52;4834.24;46521.00;0.16;81.17;;;;;24.50;37.60;;;;;;2256153;61;7507;-67
2020/12/26 08:25:29;2711475.00;9.04;5202.26;25189.00;0.08;44.25;;;;;24.60;37.70;;;;;;2248497;61;5490;-67
2020/12/26 08:27:56;120635592.00;402.12;71119232.00;5764.00;0.02;10.61;;;;;24.70;37.40;;;;;;2252458;61;7268;-67
2020/12/26 08:30:25;2774794.00;9.25;5355.58;3409.00;0.01;6.53;;;;;24.80;37.00;;;;;;2249799;61;7078;-67
2020/12/26 08:33:20;3399649.00;11.33;7006.13;22728.00;0.08;39.99;;;;;24.90;37.10;;;;;;2251816;61;7208;-67
2020/12/26 08:35:55;2502712.00;8.34;4712.84;55972.00;0.19;97.51;;;;;25.00;37.00;;;;;;2253612;61;6962;-66
2020/12/26 08:38:44;3021423.00;10.07;5976.04;20916.00;0.07;36.86;;;;;25.20;37.10;;;;;;2251726;61;7385;-67
2020/12/26 08:41:12;142487136.00;474.96;117246888.00;37191.00;0.12;65.03;;;;;25.30;36.90;;;;;;2254151;61;7110;-65
2020/12/26 08:43:39;3889234.00;12.96;8500.04;100926.00;0.34;175.17;;;;;25.30;36.80;;;;;;2248950;61;7584;-66
2020/12/26 08:46:18;4004117.00;13.35;8879.61;51911.00;0.17;90.49;;;;;25.50;36.60;;;;;;2246914;61;7461;-66
2020/12/26 08:48:45;133935224.00;446.45;97359112.00;98343.00;0.33;170.71;;;;;25.50;36.60;;;;;;2251800;61;7216;-66
2020/12/26 08:51:42;122350728.00;407.84;74198872.00;167380.00;0.56;289.75;;;;;25.60;36.50;;;;;;2248087;61;6233;-66
2020/12/26 08:54:23;5576689.00;18.59;15419.54;36058.00;0.12;63.07;;;;;25.70;36.30;;;;;;2249995;61;7359;-67
2020/12/26 08:56:53;6093854.00;20.31;18214.83;101551.00;0.34;176.25;;;;;25.70;36.30;;;;;;2253960;61;6026;-67
2020/12/26 08:59:30;6754922.00;22.52;22339.71;195706.00;0.65;338.53;;;;;25.70;36.20;;;;;;2244476;61;7238;-67
2020/12/26 09:01:57;6946311.00;23.15;23658.61;173731.00;0.58;300.69;;;;;25.80;36.20;;;;;;2247779;61;7434;-67
2020/12/26 09:04:23;6455086.00;21.52;20388.21;68747.00;0.23;119.60;;;;;25.90;36.10;;;;;;2247406;61;7446;-67
2020/12/26 09:06:49;6066761.00;20.22;18059.35;129397.00;0.43;224.29;;;;;25.90;36.00;;;;;;2248807;61;7345;-67
2020/12/26 09:09:22;5416410.00;18.05;14624.23;81603.00;0.27;141.81;;;;;26.00;36.10;;;;;;2253641;61;7509;-67
2020/12/26 09:12:01;4601685.00;15.34;11052.70;66930.00;0.22;116.46;;;;;26.00;36.10;;;;;;2254236;61;7372;-67
2020/12/26 09:14:27;5611924.00;18.71;15598.75;108115.00;0.36;187.58;;;;;26.00;36.00;;;;;;2251759;61;7355;-67
2020/12/26 09:16:58;6742366.00;22.47;22255.21;155367.00;0.52;269.06;;;;;26.00;36.20;;;;;;2245495;61;7247;-67
2020/12/26 09:19:26;7648437.00;25.49;29016.30;279591.00;0.93;482.83;;;;;26.10;36.10;;;;;;2248063;61;6074;-67
2020/12/26 09:22:06;122991064.00;409.97;75371080.00;95739.00;0.32;166.22;;;;;26.10;36.00;;;;;;2251577;61;6989;-67
2020/12/26 09:24:32;135831328.00;452.77;101557136.00;75299.00;0.25;130.92;;;;;26.10;36.00;;;;;;2252945;61;7156;-68
2020/12/26 09:26:59;5355338.00;17.85;14329.62;66814.00;0.22;116.25;;;;;26.20;36.00;;;;;;2251113;61;7717;-67
2020/12/26 09:29:25;3642552.00;12.14;7723.17;26767.00;0.09;46.99;;;;;26.20;36.10;;;;;;2246445;61;7056;-67
2020/12/26 09:31:52;4482668.00;14.94;10591.92;60467.00;0.20;105.28;;;;;26.20;36.00;;;;;;2249345;61;7041;-67
2020/12/26 09:34:23;123637752.00;412.13;76567376.00;82017.00;0.27;142.52;;;;;26.20;36.00;;;;;;2250708;61;7270;-67
2020/12/26 09:37:06;4547472.00;15.16;10841.01;50017.00;0.17;87.22;;;;;26.30;36.00;;;;;;2254211;61;7317;-68
2020/12/26 09:39:33;2251610.00;7.51;4154.41;0.00;0.00;0.62;;;;;26.20;36.30;;;;;;2257896;61;7351;-69
2020/12/26 09:42:00;3955728.00;13.19;8718.32;0.00;0.00;0.62;;;;;26.10;36.80;;;;;;2254045;61;7910;-70
2020/12/26 09:44:26;2754642.00;9.18;5306.53;0.00;0.00;0.62;;;;;26.10;36.90;;;;;;2247757;61;5432;-69
2020/12/26 09:47:01;3167893.00;10.56;6363.12;0.00;0.00;0.62;;;;;26.20;37.60;;;;;;2254887;61;7339;-71
2020/12/26 09:49:28;2530997.00;8.44;4777.76;0.00;0.00;0.62;;;;;26.30;37.20;;;;;;2252002;61;8660;-69